Aérodrome :
LOGIN :

S'inscrire | Disclaimer

   EN    FR    IT 

 










Légende :    VFR   VFR Marginal   IFR   IFR Intensif   IFR Très Intensif
Visi : 
Plafond : 
>= 8 km
>= 3000ft
5 à 8 km
1000 à 3000 ft
1500m à 5 km
500 à 1000 ft
800 à 1500m
200 à 500 ft
< 800m
< 200 ft
Symboles :   Orages  Brouillard  Fortes neiges  Fortes précipitations  Vent > 20 kt
SIGMETs :   Divers  Orages  Givrage  Turbulence  Onde Orograph.  Cendres Volcan.







- Altitude de l'aérodrome : 614 ft
- Code IATA : CRL


EBCI - Charleroi

DERNIER METAR :
  • 151950Z 16014KT 6000 FZRA SCT025 BKN039 M00/M03 Q1013 REPL TEMPO 17015G28KT 3000 -SN -FZRA

METARs EXPIRÉS :
  • 151920Z 15015KT 120V190 7000 FZRA PL SCT025 BKN044 M00/M04 Q1013 TEMPO 17015G28KT 3000 -SN -FZRA
  • 151850Z 15015KT 9999 -FZRA NSC M00/M06 Q1014 TEMPO 17015G28KT 3000 -SN -FZRA
  • 151820Z 15015KT CAVOK M01/M06 Q1014 TEMPO 17015G28KT 3000 -SN -FZRA
  • 151750Z 16013KT CAVOK M01/M06 Q1015 TEMPO 3000 -SN
  • 151720Z 15011KT 120V190 CAVOK M01/M06 Q1016 TEMPO 3000 -SN

TAF TAF EBCI
Valide du 15 à 18h jusqu'au 17 à 00h UTC


151700Z 1518/1624 14010KT 9999 BKN040
TEMPO 1518/1520 -SN -FZRA
BECMG 1519/1521 3500 -SN BKN006
TEMPO 1520/1524 16016G28KT 1200 SN BKN001
PROB40
TEMPO 1600/1602 -FZRA
BECMG 1601/1603 20010KT 6000 NSW
PROB40 1604/1609 0500 FG BKN001
PROB30
TEMPO 1609/1611 4000 SHRA BKN004 BKN014TCU
Pas de NOTAMs connus pour ce terrain.
3 SIGMETs publiés pour la FIR Brussels (EBBU) :
 
Givrage fort
EBBU SIGMET 07 VALID 151930/152330 EBBR
EBBU BRUSSELS FIR SEV ICE FCST ENTIRE FIR FL060/180 MOV NE 15KT NC=
Givrage fort avec pluie surfondue
EBBU SIGMET 05 VALID 151900/152300 EBBR
EBBU BRUSSELS FIR SEV ICE (FZRA) OBS ENTIRE FIR SFC/FL020 MOV NE 15KT NC=
Turbulence forte
EBBU SIGMET 04 VALID 151800/152200 EBBR
EBBU BRUSSELS FIR SEV TURB FCST SW OF LINE N5112 E00257 - N5015 E00441 SFC/FL050 MOV NE 15KT NC=



MET'MAP, la Météo Aéronautique d'un coup d'oeil ! - Copyright ORBIFLY Décembre 2007 - Disclaimer

ORBIFLY MET'MAP TEAM :

Programmation & Développement : Alexandra Zaïnal
Conception & Développement : Baudouin d'Aumeries
Co-Programmation & Développement : Marc-Olivier Méhu
Soutien technique & logistique : Manuel Goepfert

Contact : metmap@orbifly.com




SOURCES & CREDITS :

   NOAA